createdAt,value
2022-10-07T00:02:24.033Z,9.30
2022-10-07T00:06:27.915Z,9.10
2022-10-07T00:10:31.449Z,9.10
2022-10-07T00:14:37.994Z,9.10
2022-10-07T00:18:43.138Z,9.10
2022-10-07T00:22:46.765Z,9.10
2022-10-07T00:26:50.069Z,9.00
2022-10-07T00:30:58.603Z,9.00
2022-10-07T00:35:03.361Z,8.90
2022-10-07T00:39:09.645Z,8.90
2022-10-07T00:43:24.351Z,8.80
2022-10-07T00:47:31.712Z,8.80
2022-10-07T00:51:37.884Z,8.80
2022-10-07T00:55:41.380Z,8.80
2022-10-07T00:59:44.739Z,8.80
2022-10-07T01:03:48.871Z,8.70
2022-10-07T01:07:58.273Z,8.70
2022-10-07T01:12:11.102Z,8.60
2022-10-07T01:16:23.270Z,8.50
2022-10-07T01:20:34.208Z,8.60
2022-10-07T01:24:45.078Z,8.50
2022-10-07T01:28:53.051Z,8.40
2022-10-07T01:33:01.537Z,8.50
2022-10-07T01:37:08.124Z,8.40
2022-10-07T01:41:15.221Z,8.30
2022-10-07T01:45:22.266Z,8.40
2022-10-07T01:49:25.605Z,8.30
2022-10-07T01:53:50.149Z,8.30
2022-10-07T01:58:02.722Z,8.20
2022-10-07T02:02:21.546Z,8.20
2022-10-07T02:06:37.496Z,8.20
2022-10-07T02:10:56.741Z,8.20
2022-10-07T02:15:08.106Z,8.20
2022-10-07T02:19:18.860Z,8.20
2022-10-07T02:23:25.557Z,8.10
2022-10-07T02:27:36.186Z,8.10
2022-10-07T02:31:45.794Z,8.10
2022-10-07T02:35:55.152Z,8.10
2022-10-07T02:40:19.552Z,8.10
2022-10-07T02:44:31.007Z,8.00
2022-10-07T02:48:40.317Z,8.00
2022-10-07T02:52:48.221Z,8.00
2022-10-07T02:56:54.073Z,7.90
2022-10-07T03:01:05.344Z,7.90
2022-10-07T03:05:12.363Z,7.90
2022-10-07T03:09:20.983Z,8.00
2022-10-07T03:13:28.880Z,8.00
2022-10-07T03:17:36.449Z,7.90
2022-10-07T03:21:42.835Z,7.90
2022-10-07T03:25:54.591Z,7.90
2022-10-07T03:29:59.742Z,7.80
2022-10-07T03:34:05.412Z,7.80
2022-10-07T03:38:11.485Z,7.80
2022-10-07T03:42:16.480Z,7.80
2022-10-07T03:46:28.887Z,7.80
2022-10-07T03:50:55.516Z,7.70
2022-10-07T03:55:26.119Z,7.70
2022-10-07T03:59:30.796Z,7.70
2022-10-07T04:03:34.749Z,7.70
2022-10-07T04:07:37.945Z,7.70
2022-10-07T04:11:41.866Z,7.70
2022-10-07T04:15:46.598Z,7.60
2022-10-07T04:19:51.756Z,7.60
2022-10-07T04:23:55.887Z,7.60
2022-10-07T04:28:02.202Z,7.50
2022-10-07T04:32:08.225Z,7.50
2022-10-07T04:36:15.473Z,7.60
2022-10-07T04:40:20.148Z,7.50
2022-10-07T04:44:23.461Z,7.50
2022-10-07T04:48:28.220Z,7.50
2022-10-07T04:52:31.905Z,7.50
2022-10-07T04:56:35.213Z,7.50
2022-10-07T05:00:44.420Z,7.50
2022-10-07T05:04:49.179Z,7.70
2022-10-07T05:08:54.396Z,8.00
2022-10-07T05:12:57.591Z,8.10
2022-10-07T05:17:00.821Z,8.20
2022-10-07T05:21:08.448Z,8.40
2022-10-07T05:25:11.986Z,8.60
2022-10-07T05:29:15.495Z,8.60
2022-10-07T05:33:18.970Z,8.70
2022-10-07T05:37:24.061Z,8.80
2022-10-07T05:41:29.103Z,8.90
2022-10-07T05:45:33.065Z,9.00
2022-10-07T05:49:36.921Z,9.30
2022-10-07T05:53:43.175Z,9.50
2022-10-07T05:57:46.751Z,9.50
2022-10-07T06:01:50.458Z,9.50
2022-10-07T06:05:54.538Z,9.40
2022-10-07T06:10:17.017Z,9.30
2022-10-07T06:14:20.201Z,9.30
2022-10-07T06:18:23.497Z,9.40
2022-10-07T06:22:26.708Z,9.40
2022-10-07T06:26:31.445Z,9.40
2022-10-07T06:30:35.174Z,9.40
2022-10-07T06:34:38.504Z,9.60
2022-10-07T06:38:45.702Z,9.70
2022-10-07T06:42:50.263Z,9.80
2022-10-07T06:46:53.691Z,9.90
2022-10-07T06:50:58.923Z,10.00
2022-10-07T06:55:02.112Z,10.20
2022-10-07T06:59:06.866Z,10.20
2022-10-07T07:03:10.522Z,10.40
2022-10-07T07:07:13.921Z,10.60
2022-10-07T07:11:35.152Z,10.90
2022-10-07T07:15:41.122Z,11.10
2022-10-07T07:19:44.452Z,11.40
2022-10-07T07:23:47.651Z,11.70
2022-10-07T07:27:56.801Z,12.00
2022-10-07T07:32:04.507Z,12.30
2022-10-07T07:36:16.578Z,12.60
2022-10-07T07:40:20.744Z,13.00
2022-10-07T07:44:26.558Z,13.30
2022-10-07T07:48:33.044Z,13.70
2022-10-07T07:52:36.608Z,14.00
2022-10-07T07:56:40.733Z,14.30
2022-10-07T08:00:43.895Z,14.50
2022-10-07T08:04:48.982Z,14.90
2022-10-07T08:08:52.817Z,15.10
2022-10-07T08:12:57.127Z,15.30
2022-10-07T08:17:00.351Z,15.40
2022-10-07T08:21:07.735Z,15.50
2022-10-07T08:25:11.202Z,15.60
2022-10-07T08:29:15.351Z,15.80
2022-10-07T08:33:18.787Z,16.30
2022-10-07T08:37:25.433Z,17.10
2022-10-07T08:41:44.178Z,17.60
2022-10-07T08:45:48.490Z,18.00
2022-10-07T08:50:04.593Z,18.00
2022-10-07T08:54:17.247Z,17.90
2022-10-07T08:58:43.409Z,17.90
2022-10-07T09:03:04.774Z,17.60
2022-10-07T09:07:14.270Z,17.90
2022-10-07T09:11:27.771Z,18.00
2022-10-07T09:15:39.829Z,18.50
2022-10-07T09:19:48.214Z,19.10
2022-10-07T09:23:56.170Z,19.50
2022-10-07T09:28:00.815Z,19.50
2022-10-07T09:32:04.152Z,19.80
2022-10-07T09:36:10.095Z,21.10
2022-10-07T09:40:22.817Z,23.20
2022-10-07T09:44:29.442Z,23.70
2022-10-07T09:48:35.871Z,24.50
2022-10-07T09:52:40.201Z,25.40
2022-10-07T09:56:46.094Z,25.80
2022-10-07T10:00:52.829Z,24.90
2022-10-07T10:04:58.637Z,23.60
2022-10-07T10:09:01.835Z,22.20
2022-10-07T10:13:07.472Z,21.60
2022-10-07T10:17:31.957Z,21.20
2022-10-07T10:21:37.015Z,20.90
2022-10-07T10:26:05.770Z,21.00
2022-10-07T10:30:15.323Z,20.80
2022-10-07T10:34:35.586Z,21.10
2022-10-07T10:38:47.518Z,21.60
2022-10-07T10:43:00.288Z,23.60
2022-10-07T10:47:14.995Z,25.20
2022-10-07T10:51:32.867Z,27.20
2022-10-07T10:56:00.985Z,28.70
2022-10-07T11:00:11.282Z,28.10
2022-10-07T11:04:32.430Z,26.90
2022-10-07T11:08:39.228Z,28.70
2022-10-07T11:12:48.221Z,28.40
2022-10-07T11:16:56.736Z,28.60
2022-10-07T11:21:02.489Z,28.60
2022-10-07T11:25:18.995Z,30.70
2022-10-07T11:29:31.787Z,32.60
2022-10-07T11:33:44.469Z,33.30
2022-10-07T11:37:55.926Z,32.90
2022-10-07T11:42:04.947Z,31.50
2022-10-07T11:46:15.859Z,31.50
2022-10-07T11:50:23.916Z,33.30
2022-10-07T11:54:30.271Z,32.60
2022-10-07T11:58:37.375Z,31.00
2022-10-07T12:02:45.014Z,32.10
2022-10-07T12:07:23.218Z,31.20
2022-10-07T12:11:48.026Z,31.00
2022-10-07T12:15:53.440Z,30.50
2022-10-07T12:20:34.685Z,31.70
2022-10-07T12:24:40.579Z,33.10
2022-10-07T12:28:48.656Z,32.90
2022-10-07T12:33:02.183Z,32.50
2022-10-07T12:37:43.081Z,32.60
2022-10-07T12:41:48.125Z,33.40
2022-10-07T12:45:52.742Z,33.70
2022-10-07T12:50:01.662Z,32.90
2022-10-07T12:54:08.297Z,34.80
2022-10-07T12:58:49.046Z,35.70
2022-10-07T13:03:25.939Z,33.90
